Larry Tilley — WY2160 — position and weather

sailwx.info

Track history (hours):
 
Tides and Currents Weather Stations Pressure Air Temp Water Temp Dewpoint Dewpoint Depression Visibility Wind Speed Wind Dir Waves Ship Positions

Larry Tilley

Owner: SOUTHERN TOWING COMPANY LLC., MEMPHIS, TN. More information available from US FCC via Universal Licensing System and Coast Guard Vessel Documentation Center.

Last reported at 2016-Aug-03 13:08 UTC. Time now 2016-Aug-30 07:22 UTC.
Position N 33°03' W 091°09'.
Warning: this ship's position is 26 days out of date.

Length 40 m; draft 8.6 m.

Type: Towing. MMSI: 366919230.

Date/timePositionNaut miles runAvg speedWind from/ knotsBaromVisibWave heightAir tempDewpointWater temp
2016-Aug-03 13:08N 33°03' W 091°09'7 2.9
2016-Aug-03 10:33N 32°57' W 091°05'9 3.0
2016-Aug-03 07:32N 32°49' W 091°09'3 3.5
2016-Aug-03 06:34N 32°45' W 091°09'5 1.6
2016-Aug-03 03:17N 32°40' W 091°08'2 2.9
2016-Aug-03 02:30N 32°38' W 091°09'4 4.0
2016-Aug-03 01:33N 32°35' W 091°07'3 3.4
2016-Aug-03 00:31N 32°31' W 091°06'3 3.0
2016-Aug-02 23:33N 32°29' W 091°07'4 4.2
2016-Aug-02 22:33N 32°26' W 091°03'3 3.5
2016-Aug-02 21:33N 32°24' W 090°59'3 3.1
2016-Aug-02 20:33N 32°21' W 090°59'4 3.8
2016-Aug-02 19:33N 32°20' W 090°54'2 2.5
2016-Aug-02 18:33N 32°18' W 090°56'3 3.1
2016-Aug-02 17:33N 32°16' W 090°58'3 3.4
2016-Aug-02 16:33N 32°12' W 090°59'4 3.6
2016-Aug-02 15:28N 32°09' W 091°00'3 3.5
2016-Aug-02 14:31N 32°08' W 091°04'2 2.4
2016-Aug-02 13:33N 32°06' W 091°06'5 3.6
2016-Aug-02 12:14N 32°02' W 091°04'1 1.1
2016-Aug-02 11:33N 32°01' W 091°04'6 3.1
2016-Aug-02 09:33N 31°58' W 091°11'  
2016-Jul-26 02:05N 31°58' W 091°11'6 8.4
2016-Jul-26 01:24N 32°00' W 091°05'7 8.0
2016-Jul-26 00:33N 32°07' W 091°06'6 6.4
2016-Jul-25 23:33N 32°10' W 091°00'9 8.7
2016-Jul-25 22:33N 32°18' W 090°55'6 6.0
2016-Jul-25 21:33N 32°22' W 091°00'8 7.7
2016-Jul-25 20:33N 32°28' W 091°06'8 8.0
2016-Jul-25 19:34N 32°36' W 091°08'  
Track history (hours):
 
Tides and Currents Weather Stations Pressure Air Temp Water Temp Dewpoint Dewpoint Depression Visibility Wind Speed Wind Dir Waves Ship Positions

Larry Tilley

Owner: SOUTHERN TOWING COMPANY LLC., MEMPHIS, TN. More information available from US FCC via Universal Licensing System and Coast Guard Vessel Documentation Center.

Last reported at 2016-Aug-03 13:08 UTC. Time now 2016-Aug-30 07:22 UTC.
Position N 33°03' W 091°09'.
Warning: this ship's position is 26 days out of date.

Length 40 m; draft 8.6 m.

Type: Towing. MMSI: 366919230.

Date/timePositionNaut miles runAvg speedWind from/ knotsBaromVisibWave heightAir tempDewpointWater temp
2016-Aug-03 13:08N 33°03' W 091°09'7 2.9
2016-Aug-03 10:33N 32°57' W 091°05'9 3.0
2016-Aug-03 07:32N 32°49' W 091°09'3 3.5
2016-Aug-03 06:34N 32°45' W 091°09'5 1.6
2016-Aug-03 03:17N 32°40' W 091°08'2 2.9
2016-Aug-03 02:30N 32°38' W 091°09'4 4.0
2016-Aug-03 01:33N 32°35' W 091°07'3 3.4
2016-Aug-03 00:31N 32°31' W 091°06'3 3.0
2016-Aug-02 23:33N 32°29' W 091°07'4 4.2
2016-Aug-02 22:33N 32°26' W 091°03'3 3.5
2016-Aug-02 21:33N 32°24' W 090°59'3 3.1
2016-Aug-02 20:33N 32°21' W 090°59'4 3.8
2016-Aug-02 19:33N 32°20' W 090°54'2 2.5
2016-Aug-02 18:33N 32°18' W 090°56'3 3.1
2016-Aug-02 17:33N 32°16' W 090°58'3 3.4
2016-Aug-02 16:33N 32°12' W 090°59'4 3.6
2016-Aug-02 15:28N 32°09' W 091°00'3 3.5
2016-Aug-02 14:31N 32°08' W 091°04'2 2.4
2016-Aug-02 13:33N 32°06' W 091°06'5 3.6
2016-Aug-02 12:14N 32°02' W 091°04'1 1.1
2016-Aug-02 11:33N 32°01' W 091°04'6 3.1
2016-Aug-02 09:33N 31°58' W 091°11'  
2016-Jul-26 02:05N 31°58' W 091°11'6 8.4
2016-Jul-26 01:24N 32°00' W 091°05'7 8.0
2016-Jul-26 00:33N 32°07' W 091°06'6 6.4
2016-Jul-25 23:33N 32°10' W 091°00'9 8.7
2016-Jul-25 22:33N 32°18' W 090°55'6 6.0
2016-Jul-25 21:33N 32°22' W 091°00'8 7.7
2016-Jul-25 20:33N 32°28' W 091°06'8 8.0
2016-Jul-25 19:34N 32°36' W 091°08'  

Dump ship's entire track history